createdAt,value
2022-08-20T00:02:15.513Z,9.00
2022-08-20T00:04:44.662Z,9.10
2022-08-20T00:07:14.611Z,8.50
2022-08-20T00:09:43.444Z,9.10
2022-08-20T00:12:16.159Z,9.20
2022-08-20T00:14:44.332Z,9.00
2022-08-20T00:17:12.414Z,9.00
2022-08-20T00:19:40.481Z,8.70
2022-08-20T00:22:08.611Z,8.80
2022-08-20T00:24:36.785Z,9.00
2022-08-20T00:27:05.370Z,8.80
2022-08-20T00:29:33.436Z,8.70
2022-08-20T00:32:01.559Z,8.90
2022-08-20T00:34:30.409Z,8.80
2022-08-20T00:36:58.510Z,8.80
2022-08-20T00:39:26.590Z,8.80
2022-08-20T00:41:55.189Z,9.20
2022-08-20T00:44:23.323Z,9.20
2022-08-20T00:46:53.673Z,9.10
2022-08-20T00:49:28.295Z,9.30
2022-08-20T00:52:07.784Z,9.20
2022-08-20T00:54:39.917Z,8.10
2022-08-20T00:57:19.698Z,9.80
2022-08-20T00:59:49.960Z,9.50
2022-08-20T01:02:21.514Z,9.20
2022-08-20T01:04:54.810Z,9.60
2022-08-20T01:07:32.696Z,9.60
2022-08-20T01:10:04.945Z,9.60
2022-08-20T01:12:32.948Z,9.10
2022-08-20T01:15:04.703Z,9.60
2022-08-20T01:17:36.394Z,10.60
2022-08-20T01:20:13.897Z,10.20
2022-08-20T01:23:30.197Z,10.30
2022-08-20T01:26:25.603Z,10.20
2022-08-20T01:28:58.671Z,9.50
2022-08-20T01:31:30.236Z,10.20
2022-08-20T01:34:01.692Z,9.70
2022-08-20T01:36:51.563Z,9.90
2022-08-20T01:39:23.726Z,9.80
2022-08-20T01:42:03.421Z,10.10
2022-08-20T01:44:32.615Z,10.00
2022-08-20T01:47:12.670Z,10.30
2022-08-20T01:49:46.672Z,9.60
2022-08-20T01:52:41.601Z,10.00
2022-08-20T01:55:10.626Z,10.20
2022-08-20T01:57:39.991Z,10.40
2022-08-20T02:00:20.091Z,11.00
2022-08-20T02:02:50.627Z,11.00
2022-08-20T02:05:19.932Z,9.80
2022-08-20T02:07:48.136Z,10.70
2022-08-20T02:10:18.412Z,10.60
2022-08-20T02:12:46.874Z,11.60
2022-08-20T02:15:15.582Z,11.30
2022-08-20T02:17:44.997Z,10.40
2022-08-20T02:20:17.925Z,9.90
2022-08-20T02:22:58.842Z,11.10
2022-08-20T02:25:30.676Z,10.70
2022-08-20T02:28:06.321Z,10.80
2022-08-20T02:30:39.248Z,11.10
2022-08-20T02:33:10.683Z,10.60
2022-08-20T02:35:42.919Z,9.70
2022-08-20T02:38:11.770Z,9.60
2022-08-20T02:40:40.873Z,9.90
2022-08-20T02:43:08.924Z,9.60
2022-08-20T02:45:43.664Z,10.10
2022-08-20T02:48:23.613Z,9.90
2022-08-20T02:51:05.110Z,10.20
2022-08-20T02:53:36.513Z,10.60
2022-08-20T02:56:06.362Z,10.30
2022-08-20T02:58:35.383Z,11.30
2022-08-20T03:01:06.942Z,11.10
2022-08-20T03:03:35.459Z,11.30
2022-08-20T03:06:04.613Z,11.20
2022-08-20T03:08:33.004Z,12.30
2022-08-20T03:11:01.216Z,11.80
2022-08-20T03:13:29.296Z,11.70
2022-08-20T03:16:02.337Z,11.60
2022-08-20T03:18:34.972Z,11.90
2022-08-20T03:21:04.984Z,11.70
2022-08-20T03:23:35.153Z,10.80
2022-08-20T03:26:05.651Z,10.90
2022-08-20T03:28:34.241Z,12.10
2022-08-20T03:31:03.183Z,10.70
2022-08-20T03:33:34.017Z,11.00
2022-08-20T03:36:02.027Z,10.50
2022-08-20T03:38:32.862Z,9.90
2022-08-20T03:41:02.428Z,11.10
2022-08-20T03:43:31.379Z,11.50
2022-08-20T03:45:59.966Z,11.10
2022-08-20T03:48:29.568Z,11.00
2022-08-20T03:51:00.968Z,10.40
2022-08-20T03:53:31.905Z,9.50
2022-08-20T03:56:02.440Z,10.20
2022-08-20T03:58:36.096Z,9.50
2022-08-20T04:01:07.479Z,10.70
2022-08-20T04:03:41.495Z,10.50
2022-08-20T04:06:09.535Z,10.10
2022-08-20T04:08:40.431Z,9.40
2022-08-20T04:11:08.993Z,10.70
2022-08-20T04:13:41.476Z,10.70
2022-08-20T04:16:14.759Z,10.70
2022-08-20T04:19:01.710Z,12.50
2022-08-20T04:21:35.604Z,11.50
2022-08-20T04:24:05.860Z,12.90
2022-08-20T04:26:36.606Z,12.80
2022-08-20T04:29:05.237Z,11.80
2022-08-20T04:31:33.795Z,12.00
2022-08-20T04:34:03.738Z,10.60
2022-08-20T04:36:31.983Z,10.90
2022-08-20T04:38:59.987Z,10.50
2022-08-20T04:41:28.375Z,10.50
2022-08-20T04:43:56.905Z,10.80
2022-08-20T04:46:28.919Z,11.00
2022-08-20T04:48:57.651Z,11.10
2022-08-20T04:51:26.940Z,10.10
2022-08-20T04:53:57.528Z,10.80
2022-08-20T04:56:30.685Z,12.00
2022-08-20T04:59:00.825Z,12.50
2022-08-20T05:01:28.941Z,12.90
2022-08-20T05:03:58.099Z,11.40
2022-08-20T05:06:30.697Z,10.40
2022-08-20T05:09:00.856Z,10.50
2022-08-20T05:11:33.381Z,11.10
2022-08-20T05:14:05.757Z,10.90
2022-08-20T05:16:38.106Z,11.00
2022-08-20T05:19:09.195Z,10.70
2022-08-20T05:21:38.019Z,10.60
2022-08-20T05:24:07.380Z,11.60
2022-08-20T05:26:36.125Z,11.60
2022-08-20T05:29:05.691Z,11.20
2022-08-20T05:31:34.956Z,11.10
2022-08-20T05:34:12.523Z,13.40
2022-08-20T05:36:44.829Z,12.40
2022-08-20T05:39:13.877Z,12.50
2022-08-20T05:41:42.388Z,11.80
2022-08-20T05:44:13.601Z,12.60
2022-08-20T05:46:44.991Z,11.60
2022-08-20T05:49:20.266Z,13.20
2022-08-20T05:51:51.085Z,12.80
2022-08-20T05:54:19.502Z,12.60
2022-08-20T05:56:47.658Z,12.60
2022-08-20T05:59:15.913Z,12.40
2022-08-20T06:01:44.436Z,11.90
2022-08-20T06:04:24.918Z,12.90
2022-08-20T06:06:56.495Z,13.00
2022-08-20T06:09:31.898Z,12.80
2022-08-20T06:12:04.531Z,12.30
2022-08-20T06:14:33.033Z,12.00
2022-08-20T06:17:10.982Z,12.90
2022-08-20T06:19:44.471Z,13.40
2022-08-20T06:22:19.485Z,12.40
2022-08-20T06:24:55.591Z,12.00
2022-08-20T06:27:24.570Z,13.00
2022-08-20T06:29:54.102Z,11.70
2022-08-20T06:32:31.737Z,11.50
2022-08-20T06:35:03.927Z,11.40
2022-08-20T06:37:33.750Z,11.10
2022-08-20T06:40:12.679Z,10.90
2022-08-20T06:42:47.408Z,11.50
2022-08-20T06:45:21.610Z,11.10
2022-08-20T06:47:49.666Z,11.80
2022-08-20T06:50:22.000Z,11.90
2022-08-20T06:53:03.181Z,11.00
2022-08-20T06:55:32.941Z,10.00
2022-08-20T06:58:04.432Z,10.50
2022-08-20T07:00:34.297Z,12.10
2022-08-20T07:03:04.249Z,10.70
2022-08-20T07:05:35.005Z,10.90
2022-08-20T07:08:03.302Z,10.30
2022-08-20T07:10:32.057Z,9.80
2022-08-20T07:13:00.642Z,9.40
2022-08-20T07:15:30.478Z,9.40
2022-08-20T07:18:02.103Z,8.90
2022-08-20T07:20:32.189Z,9.50
2022-08-20T07:23:01.240Z,9.40
2022-08-20T07:25:31.283Z,9.80
2022-08-20T07:28:14.015Z,9.60
2022-08-20T07:31:01.244Z,9.00
2022-08-20T07:33:42.818Z,8.80
2022-08-20T07:36:14.104Z,7.30
2022-08-20T07:38:47.777Z,7.40
2022-08-20T07:41:15.888Z,7.70
2022-08-20T07:43:47.733Z,7.80
2022-08-20T07:46:20.653Z,7.50
2022-08-20T07:48:51.819Z,7.20
2022-08-20T07:51:22.564Z,7.80
2022-08-20T07:53:52.020Z,6.90
2022-08-20T07:56:24.778Z,6.90
2022-08-20T07:58:55.731Z,7.70
2022-08-20T08:01:28.639Z,7.00
2022-08-20T08:06:29.394Z,7.10
2022-08-20T08:09:04.876Z,7.30
2022-08-20T08:11:37.832Z,7.80
2022-08-20T08:16:37.578Z,7.40
2022-08-20T08:19:09.096Z,7.30
2022-08-20T08:21:37.333Z,7.40
2022-08-20T08:24:05.468Z,7.00
2022-08-20T08:26:33.484Z,6.90
2022-08-20T08:29:02.725Z,6.70
2022-08-20T08:31:30.823Z,6.70
2022-08-20T08:33:59.051Z,6.40
2022-08-20T08:36:27.470Z,7.50
2022-08-20T08:38:56.862Z,7.10
2022-08-20T08:41:37.600Z,8.20
2022-08-20T08:44:11.831Z,6.90
2022-08-20T08:46:43.990Z,7.00
2022-08-20T08:49:16.771Z,7.10
2022-08-20T08:51:56.591Z,7.30
2022-08-20T08:54:29.681Z,6.70
2022-08-20T08:56:59.838Z,6.80
2022-08-20T08:59:48.739Z,7.00
2022-08-20T09:02:27.933Z,7.20
2022-08-20T09:05:00.462Z,7.00
2022-08-20T09:07:32.633Z,6.60
2022-08-20T09:10:02.453Z,7.30
2022-08-20T09:12:30.515Z,7.60
2022-08-20T09:14:58.649Z,7.20
2022-08-20T09:17:26.715Z,7.20
2022-08-20T09:19:54.718Z,6.80
2022-08-20T09:22:26.111Z,6.70
2022-08-20T09:24:54.615Z,6.90
2022-08-20T09:27:22.587Z,7.40
2022-08-20T09:29:50.623Z,7.10
2022-08-20T09:32:22.261Z,6.90
2022-08-20T09:34:56.587Z,6.80
2022-08-20T09:37:26.758Z,7.40
2022-08-20T09:39:55.541Z,7.20
2022-08-20T09:42:27.185Z,6.60
2022-08-20T09:44:55.979Z,6.80
2022-08-20T09:47:24.238Z,7.20
2022-08-20T09:49:52.535Z,6.40
2022-08-20T09:52:23.286Z,6.90
2022-08-20T09:54:55.602Z,6.80
2022-08-20T09:57:23.981Z,7.20
2022-08-20T09:59:57.574Z,7.20
2022-08-20T10:02:25.785Z,6.20
2022-08-20T10:04:53.967Z,6.30
2022-08-20T10:07:22.052Z,6.00
2022-08-20T10:09:50.088Z,6.50
2022-08-20T10:12:18.207Z,7.40
2022-08-20T10:14:46.276Z,6.20
2022-08-20T10:17:14.322Z,6.00
2022-08-20T10:19:42.420Z,6.00
2022-08-20T10:22:10.543Z,5.90
2022-08-20T10:24:38.589Z,5.70
2022-08-20T10:27:06.677Z,4.90
2022-08-20T10:29:35.750Z,4.50
2022-08-20T10:32:12.610Z,5.40
2022-08-20T10:34:43.453Z,5.90
2022-08-20T10:37:19.374Z,5.30
2022-08-20T10:39:47.934Z,5.30
2022-08-20T10:42:16.127Z,5.30
2022-08-20T10:44:44.327Z,5.10
2022-08-20T10:47:28.153Z,5.00
2022-08-20T10:49:59.461Z,5.10
2022-08-20T10:52:28.478Z,4.20
2022-08-20T10:54:56.550Z,4.40
2022-08-20T10:57:27.566Z,4.60
2022-08-20T10:59:57.391Z,4.50
2022-08-20T11:02:26.731Z,4.10
2022-08-20T11:04:55.428Z,4.90
2022-08-20T11:07:50.531Z,4.60
2022-08-20T11:10:23.067Z,4.40
2022-08-20T11:12:51.100Z,4.20
2022-08-20T11:15:19.253Z,4.90
2022-08-20T11:17:47.574Z,4.70
2022-08-20T11:20:18.201Z,4.60
2022-08-20T11:22:46.615Z,4.30
2022-08-20T11:25:15.022Z,4.50
2022-08-20T11:27:46.872Z,4.30
2022-08-20T11:30:20.149Z,4.20
2022-08-20T11:32:48.520Z,4.10
2022-08-20T11:38:05.755Z,4.90
2022-08-20T11:40:34.547Z,4.60
2022-08-20T11:43:18.506Z,4.40
2022-08-20T11:45:49.944Z,4.40
2022-08-20T11:48:18.310Z,4.40
2022-08-20T11:50:47.710Z,4.30
2022-08-20T11:53:16.210Z,4.50
2022-08-20T11:55:45.238Z,4.40
2022-08-20T11:58:13.723Z,4.60
2022-08-20T12:00:41.850Z,3.90
2022-08-20T12:03:11.933Z,4.30
2022-08-20T12:05:42.919Z,4.10
2022-08-20T12:08:26.736Z,4.10
2022-08-20T12:10:59.669Z,4.70
2022-08-20T12:13:47.911Z,4.30
2022-08-20T12:16:19.383Z,4.10
2022-08-20T12:18:48.155Z,4.20
2022-08-20T12:21:17.144Z,4.20
2022-08-20T12:23:46.143Z,4.30
2022-08-20T12:26:16.848Z,4.10
2022-08-20T12:28:44.846Z,4.70
2022-08-20T12:31:12.957Z,4.50
2022-08-20T12:33:41.349Z,4.90
2022-08-20T12:36:09.380Z,4.50
2022-08-20T12:38:37.612Z,5.00
2022-08-20T12:41:06.447Z,4.60
2022-08-20T12:43:34.530Z,5.00
2022-08-20T12:46:02.577Z,4.80
2022-08-20T12:48:30.603Z,4.70
2022-08-20T12:50:58.680Z,5.00
2022-08-20T12:53:26.760Z,5.50
2022-08-20T12:55:54.694Z,5.00
2022-08-20T12:58:22.821Z,4.80
2022-08-20T13:00:51.443Z,4.80
2022-08-20T13:03:21.148Z,5.70
2022-08-20T13:05:49.602Z,4.90
2022-08-20T13:08:19.481Z,5.80
2022-08-20T13:10:48.295Z,4.80
2022-08-20T13:13:20.981Z,5.10
2022-08-20T13:15:51.228Z,5.10
2022-08-20T13:18:20.406Z,5.30
2022-08-20T13:20:49.261Z,5.60
2022-08-20T13:23:17.438Z,5.30
2022-08-20T13:25:45.520Z,5.00
2022-08-20T13:28:13.663Z,5.00
2022-08-20T13:30:41.829Z,5.20
2022-08-20T13:33:09.897Z,5.20
2022-08-20T13:35:38.024Z,5.30
2022-08-20T13:38:06.124Z,5.80
2022-08-20T13:40:34.623Z,5.10
2022-08-20T13:43:06.735Z,5.00
2022-08-20T13:45:37.641Z,6.50
2022-08-20T13:48:14.487Z,6.30
2022-08-20T13:50:46.881Z,5.80
2022-08-20T13:53:16.146Z,7.20
2022-08-20T13:55:45.085Z,6.80
2022-08-20T13:58:13.484Z,6.70
2022-08-20T14:00:41.665Z,7.50
2022-08-20T14:03:09.834Z,7.00
2022-08-20T14:05:38.872Z,7.50
2022-08-20T14:08:12.187Z,6.80
2022-08-20T14:10:42.585Z,6.40
2022-08-20T14:13:15.436Z,6.80
2022-08-20T14:15:45.295Z,6.30
2022-08-20T14:18:14.889Z,6.70
2022-08-20T14:20:45.580Z,7.30
2022-08-20T14:23:15.206Z,6.40
2022-08-20T14:25:47.330Z,7.10
2022-08-20T14:28:21.463Z,7.10
2022-08-20T14:30:52.953Z,7.90
2022-08-20T14:33:23.968Z,7.60
2022-08-20T14:35:53.177Z,6.60
2022-08-20T14:38:21.761Z,7.50
2022-08-20T14:40:50.806Z,7.30
2022-08-20T14:43:19.827Z,7.30
2022-08-20T14:45:48.009Z,6.50
2022-08-20T14:48:16.137Z,6.40
2022-08-20T14:50:44.595Z,6.50
2022-08-20T14:53:12.635Z,6.40
2022-08-20T14:55:40.710Z,6.50
2022-08-20T14:58:11.430Z,6.50
2022-08-20T15:00:39.942Z,6.70
2022-08-20T15:03:08.399Z,6.60
2022-08-20T15:05:39.648Z,6.70
2022-08-20T15:08:10.725Z,6.70
2022-08-20T15:10:39.554Z,6.80
2022-08-20T15:13:08.542Z,6.40
2022-08-20T15:15:36.981Z,5.90
2022-08-20T15:18:05.998Z,5.90
2022-08-20T15:20:35.345Z,5.80
2022-08-20T15:23:04.841Z,5.90
2022-08-20T15:25:36.531Z,6.00
2022-08-20T15:28:09.150Z,5.90
2022-08-20T15:30:40.685Z,5.50
2022-08-20T15:33:11.512Z,5.50
2022-08-20T15:35:39.747Z,5.50
2022-08-20T15:38:07.862Z,5.30
2022-08-20T15:40:36.017Z,4.90
2022-08-20T15:43:06.014Z,5.20
2022-08-20T15:45:35.256Z,4.70
2022-08-20T15:48:17.211Z,4.90
2022-08-20T15:50:48.245Z,4.90
2022-08-20T15:53:27.375Z,4.20
2022-08-20T15:56:16.667Z,4.30
2022-08-20T15:59:21.282Z,4.50
2022-08-20T16:01:55.323Z,4.10
2022-08-20T16:04:35.384Z,4.30
2022-08-20T16:07:10.089Z,5.00
2022-08-20T16:10:16.209Z,5.10
2022-08-20T16:12:49.831Z,4.40
2022-08-20T16:15:28.751Z,5.10
2022-08-20T16:18:15.497Z,4.40
2022-08-20T16:20:53.028Z,5.70
2022-08-20T16:23:32.544Z,5.30
2022-08-20T16:26:15.775Z,4.60
2022-08-20T16:28:49.481Z,4.70
2022-08-20T16:31:21.017Z,5.10
2022-08-20T16:34:02.420Z,4.30
2022-08-20T16:37:03.225Z,4.40
2022-08-20T16:39:48.648Z,4.70
2022-08-20T16:42:24.000Z,5.00
2022-08-20T16:44:55.215Z,4.90
2022-08-20T16:47:31.306Z,4.60
2022-08-20T16:50:20.171Z,4.50
2022-08-20T16:52:50.277Z,4.50
2022-08-20T16:55:21.248Z,5.10
2022-08-20T16:57:50.075Z,4.30
2022-08-20T17:00:26.803Z,5.20
2022-08-20T17:02:54.841Z,6.00
2022-08-20T17:05:26.519Z,5.20
2022-08-20T17:08:01.830Z,5.20
2022-08-20T17:10:34.719Z,5.00
2022-08-20T17:13:14.778Z,4.60
2022-08-20T17:15:45.001Z,4.50
2022-08-20T17:18:24.539Z,4.70
2022-08-20T17:20:52.950Z,5.30
2022-08-20T17:23:21.917Z,4.30
2022-08-20T17:26:02.951Z,4.80
2022-08-20T17:28:35.240Z,4.60
2022-08-20T17:31:03.863Z,4.90
2022-08-20T17:33:39.089Z,5.00
2022-08-20T17:36:11.694Z,5.20
2022-08-20T17:38:52.229Z,4.70
2022-08-20T17:41:25.729Z,4.60
2022-08-20T17:44:17.691Z,4.50
2022-08-20T17:46:48.249Z,4.40
2022-08-20T17:49:21.337Z,4.50
2022-08-20T17:51:52.877Z,4.60
2022-08-20T17:54:30.102Z,4.10
2022-08-20T17:57:12.073Z,4.10
2022-08-20T18:00:00.960Z,4.80
2022-08-20T18:02:31.353Z,4.70
2022-08-20T18:04:59.817Z,4.30
2022-08-20T18:07:32.879Z,4.40
2022-08-20T18:10:10.893Z,4.60
2022-08-20T18:13:00.143Z,5.00
2022-08-20T18:15:40.929Z,4.70
2022-08-20T18:18:31.655Z,4.80
2022-08-20T18:21:32.422Z,4.90
2022-08-20T18:24:03.116Z,5.90
2022-08-20T18:26:44.201Z,5.00
2022-08-20T18:29:17.186Z,4.60
2022-08-20T18:32:07.222Z,5.00
2022-08-20T18:34:40.175Z,4.80
2022-08-20T18:37:17.293Z,5.00
2022-08-20T18:39:48.128Z,5.20
2022-08-20T18:42:21.933Z,5.00
2022-08-20T18:44:53.177Z,5.70
2022-08-20T18:47:34.338Z,5.20
2022-08-20T18:50:16.658Z,5.50
2022-08-20T18:52:51.221Z,5.00
2022-08-20T18:55:39.948Z,5.20
2022-08-20T18:58:11.589Z,5.50
2022-08-20T19:00:47.811Z,4.70
2022-08-20T19:03:22.265Z,5.50
2022-08-20T19:06:04.361Z,5.10
2022-08-20T19:08:46.421Z,5.10
2022-08-20T19:11:39.550Z,4.60
2022-08-20T19:14:07.670Z,4.40
2022-08-20T19:16:40.922Z,5.00
2022-08-20T19:21:49.431Z,4.70
2022-08-20T19:24:25.269Z,5.40
2022-08-20T19:27:02.675Z,5.10
2022-08-20T19:29:50.036Z,4.40
2022-08-20T19:32:31.234Z,4.90
2022-08-20T19:35:02.869Z,6.20
2022-08-20T19:37:44.319Z,5.20
2022-08-20T19:40:30.152Z,5.20
2022-08-20T19:43:02.466Z,6.40
2022-08-20T19:45:54.695Z,5.50
2022-08-20T19:48:49.462Z,5.70
2022-08-20T19:51:26.422Z,6.50
2022-08-20T19:53:54.444Z,5.20
2022-08-20T19:56:25.214Z,6.10
2022-08-20T19:59:05.867Z,6.30
2022-08-20T20:01:36.055Z,6.50
2022-08-20T20:04:07.984Z,6.80
2022-08-20T20:06:41.704Z,6.20
2022-08-20T20:09:19.549Z,6.40
2022-08-20T20:11:54.476Z,6.10
2022-08-20T20:14:31.367Z,6.00
2022-08-20T20:17:00.914Z,5.90
2022-08-20T20:19:29.173Z,6.00
2022-08-20T20:22:19.278Z,6.40
2022-08-20T20:24:57.867Z,6.60
2022-08-20T20:27:28.935Z,6.10
2022-08-20T20:30:21.531Z,6.50
2022-08-20T20:32:50.640Z,6.20
2022-08-20T20:35:29.174Z,5.90
2022-08-20T20:38:02.533Z,5.80
2022-08-20T20:40:44.767Z,6.00
2022-08-20T20:43:42.121Z,6.10
2022-08-20T20:46:17.864Z,6.00
2022-08-20T20:48:48.980Z,6.40
2022-08-20T20:51:26.323Z,6.40
2022-08-20T20:53:57.476Z,6.30
2022-08-20T20:56:31.664Z,6.20
2022-08-20T20:59:06.189Z,6.30
2022-08-20T21:01:49.504Z,5.60
2022-08-20T21:04:23.463Z,6.50
2022-08-20T21:06:54.075Z,6.00
2022-08-20T21:09:24.512Z,6.50
2022-08-20T21:11:52.681Z,6.40
2022-08-20T21:14:20.937Z,6.00
2022-08-20T21:16:49.078Z,6.10
2022-08-20T21:19:18.035Z,5.40
2022-08-20T21:21:46.204Z,5.90
2022-08-20T21:24:14.212Z,5.40
2022-08-20T21:26:42.777Z,5.60
2022-08-20T21:29:15.739Z,5.30
2022-08-20T21:31:46.781Z,5.10
2022-08-20T21:34:16.164Z,5.30
2022-08-20T21:36:46.643Z,5.30
2022-08-20T21:39:14.959Z,5.60
2022-08-20T21:41:44.367Z,5.00
2022-08-20T21:44:24.797Z,5.30
2022-08-20T21:46:55.917Z,5.40
2022-08-20T21:49:25.609Z,5.00
2022-08-20T21:51:54.003Z,4.50
2022-08-20T21:54:23.532Z,4.50
2022-08-20T21:57:02.071Z,4.90
2022-08-20T21:59:30.828Z,4.80
2022-08-20T22:02:01.291Z,4.80
2022-08-20T22:04:32.323Z,5.60
2022-08-20T22:07:04.190Z,5.20
2022-08-20T22:09:34.028Z,5.10
2022-08-20T22:12:02.746Z,4.70
2022-08-20T22:14:31.022Z,4.80
2022-08-20T22:16:59.266Z,4.60
2022-08-20T22:19:27.428Z,5.40
2022-08-20T22:21:56.636Z,5.10
2022-08-20T22:24:28.864Z,4.70
2022-08-20T22:26:57.505Z,4.60
2022-08-20T22:29:25.533Z,4.70
2022-08-20T22:31:53.937Z,4.90
2022-08-20T22:34:22.593Z,5.20
2022-08-20T22:36:54.142Z,5.30
2022-08-20T22:39:22.185Z,5.70
2022-08-20T22:41:50.306Z,4.90
2022-08-20T22:44:18.342Z,5.30
2022-08-20T22:46:48.965Z,5.00
2022-08-20T22:49:24.079Z,4.80
2022-08-20T22:51:52.802Z,4.60
2022-08-20T22:54:23.711Z,4.70
2022-08-20T22:56:52.979Z,4.20
2022-08-20T22:59:21.896Z,4.50
2022-08-20T23:01:52.504Z,5.30
2022-08-20T23:04:25.886Z,5.50
2022-08-20T23:06:55.411Z,4.90
2022-08-20T23:09:24.788Z,5.40
2022-08-20T23:11:53.114Z,5.20
2022-08-20T23:14:22.074Z,4.40
2022-08-20T23:17:01.609Z,4.60
2022-08-20T23:19:30.008Z,5.50
2022-08-20T23:21:58.194Z,4.80
2022-08-20T23:24:26.760Z,5.00
2022-08-20T23:26:54.919Z,4.90
2022-08-20T23:29:25.723Z,4.90
2022-08-20T23:31:56.523Z,4.80
2022-08-20T23:34:26.131Z,4.80
2022-08-20T23:36:56.677Z,4.50
2022-08-20T23:39:25.286Z,4.80
2022-08-20T23:41:53.921Z,4.90
2022-08-20T23:44:25.685Z,5.10
2022-08-20T23:46:58.078Z,4.50
2022-08-20T23:49:27.256Z,5.40
2022-08-20T23:51:56.046Z,4.90
2022-08-20T23:54:24.368Z,4.50
2022-08-20T23:56:57.064Z,4.50
2022-08-20T23:59:26.369Z,4.50
